New Posts  All Forums:Forum Nav:

Folding error - Page 2

post #11 of 21
Thread Starter 
THis is driving me crazy when i woke up this morning it completed a wu without a hitch but when i came back from class my computer was restarted and this error was logged

Code:
Problem signature:
  Problem Event Name:BlueScreen
  OS Version:6.1.7600.2.0.0.256.48
  Locale ID:1033

Additional information about the problem:
  BCCode:d1
  BCP1:0000000000000032
  BCP2:0000000000000002
  BCP3:0000000000000000
  BCP4:FFFFF8800149F87A
  OS Version:6_1_7600
  Service Pack:0_0
  Product:256_1

Files that help describe the problem:
  C:\\Windows\\Minidump\\032811-26910-01.dmp
  C:\\Users\\NOSKIL526\\AppData\\Local\\Temp\\WER-53570-0.sysdata.xml

Read our privacy statement online:
  http://go.microsoft.com/fwlink/?linkid=104288&clcid=0x0409

If the online privacy statement is not available, please read our privacy statement offline:
  C:\\Windows\\system32\\en-US\\erofflps.txt
That was from windows and this is from the fah log

Code:
2] Completed 495000 out of 500000 steps  (99%)
[11:23:15] Completed 500000 out of 500000 steps  (100%)
[11:23:16] DynamicWrapper: Finished Work Unit: sleep=10000
[11:23:26] 
[11:23:26] Finished Work Unit:
[11:23:26] - Reading up to 3701664 from "work/wudata_08.trr": Read 3701664
[11:23:26] trr file hash check passed.
[11:23:26] edr file hash check passed.
[11:23:26] logfile size: 67932
[11:23:26] Leaving Run
[11:23:26] - Writing 3804532 bytes of core data to disk...
[11:23:27] Done: 3804020 -> 3524499 (compressed to 92.6 percent)
[11:23:27]   ... Done.
[11:23:28] - Shutting down core
[11:23:28] 
[11:23:28] Folding@home Core Shutdown: FINISHED_UNIT
[11:23:32] CoreStatus = 64 (100)
[11:23:32] Sending work to server
[11:23:32] Project: 6952 (Run 0, Clone 55, Gen 15)


[11:23:32] + Attempting to send results [March 28 11:23:32 UTC]
[11:24:03] + Results successfully sent
[11:24:03] Thank you for your contribution to Folding@Home.
[11:24:03] + Number of Units Completed: 6

[11:24:08] - Preparing to get new work unit...
[11:24:08] Cleaning up work directory
[11:24:08] + Attempting to get work packet
[11:24:08] Passkey found
[11:24:08] - Connecting to assignment server
[11:24:08] - Successful: assigned to ().
[11:24:08] + News From Folding@Home: Welcome to Folding@Home
[11:24:08] Loaded queue successfully.
[11:24:12] + Closed connections
[11:24:12] 
[11:24:12] + Processing work unit
[11:24:12] Core required: FahCore_a3.exe
[11:24:12] Core found.
[11:24:12] Working on queue slot 09 [March 28 11:24:12 UTC]
[11:24:12] + Working ...
[11:24:13] 
[11:24:13] *------------------------------*
[11:24:13] Folding@Home Gromacs SMP Core
[11:24:13] Version 2.27 (Dec. 15, 2010)
[11:24:13] 
[11:24:13] Preparing to commence simulation
[11:24:13] - Looking at optimizations...
[11:24:13] - Created dyn
[11:24:13] - Files status OK
[11:24:13] - Expanded 1763553 -> 2250761 (decompressed 127.6 percent)
[11:24:13] Called DecompressByteArray: compressed_data_size=1763553 data_size=2250761, decompressed_data_size=2250761 diff=0
[11:24:13] - Digital signature verified
[11:24:13] 
[11:24:13] Project: 6052 (Run 1, Clone 105, Gen 231)
[11:24:13] 
[11:24:13] Assembly optimizations on if available.
[11:24:13] Entering M.D.
[11:24:19] Mapping NT from 4 to 4 
[11:24:19] Completed 0 out of 500000 steps  (0%)
[11:29:31] Completed 5000 out of 500000 steps  (1%)
[11:34:43] Completed 10000 out of 500000 steps  (2%)
[11:39:56] Completed 15000 out of 500000 steps  (3%)
[11:45:08] Completed 20000 out of 500000 steps  (4%)
[11:50:19] Completed 25000 out of 500000 steps  (5%)
[11:55:31] Completed 30000 out of 500000 steps  (6%)
[12:00:44] Completed 35000 out of 500000 steps  (7%)
[12:05:55] Completed 40000 out of 500000 steps  (8%)
[12:11:08] Completed 45000 out of 500000 steps  (9%)
[12:16:19] Completed 50000 out of 500000 steps  (10%)
[12:21:32] Completed 55000 out of 500000 steps  (11%)
[12:26:43] Completed 60000 out of 500000 steps  (12%)
[12:31:55] Completed 65000 out of 500000 steps  (13%)
[12:37:06] Completed 70000 out of 500000 steps  (14%)
[12:42:18] Completed 75000 out of 500000 steps  (15%)
[12:47:29] Completed 80000 out of 500000 steps  (16%)
[12:52:42] Completed 85000 out of 500000 steps  (17%)
[12:57:53] Completed 90000 out of 500000 steps  (18%)
[13:03:04] Completed 95000 out of 500000 steps  (19%)
[13:08:15] Completed 100000 out of 500000 steps  (20%)
[13:13:26] Completed 105000 out of 500000 steps  (21%)
[13:18:37] Completed 110000 out of 500000 steps  (22%)
[13:23:59] Completed 115000 out of 500000 steps  (23%)
[13:29:16] Completed 120000 out of 500000 steps  (24%)
[13:34:36] Completed 125000 out of 500000 steps  (25%)
[13:39:53] Completed 130000 out of 500000 steps  (26%)
[13:45:09] Completed 135000 out of 500000 steps  (27%)
[13:50:27] Completed 140000 out of 500000 steps  (28%)
[13:55:46] Completed 145000 out of 500000 steps  (29%)
[14:01:04] Completed 150000 out of 500000 steps  (30%)
[14:06:22] Completed 155000 out of 500000 steps  (31%)
[14:11:41] Completed 160000 out of 500000 steps  (32%)
[14:16:59] Completed 165000 out of 500000 steps  (33%)
[14:22:17] Completed 170000 out of 500000 steps  (34%)
[14:27:37] Completed 175000 out of 500000 steps  (35%)
[14:32:54] Completed 180000 out of 500000 steps  (36%)
[14:38:12] Completed 185000 out of 500000 steps  (37%)
[14:43:30] Completed 190000 out of 500000 steps  (38%)
[14:48:58] Completed 195000 out of 500000 steps  (39%)
[14:54:30] Completed 200000 out of 500000 steps  (40%)
[15:00:00] Completed 205000 out of 500000 steps  (41%)
[15:05:28] Completed 210000 out of 500000 steps  (42%)
[15:10:59] Completed 215000 out of 500000 steps  (43%)
[15:16:28] Completed 220000 out of 500000 steps  (44%)
[15:22:40] Completed 225000 out of 500000 steps  (45%)
[15:28:14] Completed 230000 out of 500000 steps  (46%)
[15:33:47] Completed 235000 out of 500000 steps  (47%)
[15:39:18] Completed 240000 out of 500000 steps  (48%)
[15:45:16] Completed 245000 out of 500000 steps  (49%)
[15:51:28] Completed 250000 out of 500000 steps  (50%)
[15:57:16] Completed 255000 out of 500000 steps  (51%)
[16:02:29] Completed 260000 out of 500000 steps  (52%)
[16:07:41] Completed 265000 out of 500000 steps  (53%)
[16:12:56] Completed 270000 out of 500000 steps  (54%)
[16:18:09] Completed 275000 out of 500000 steps  (55%)
[16:23:23] Completed 280000 out of 500000 steps  (56%)
[16:28:37] Completed 285000 out of 500000 steps  (57%)
[16:33:52] Completed 290000 out of 500000 steps  (58%)
[16:39:05] Completed 295000 out of 500000 steps  (59%)
[16:44:20] Completed 300000 out of 500000 steps  (60%)
[16:49:33] Completed 305000 out of 500000 steps  (61%)
[16:54:46] Completed 310000 out of 500000 steps  (62%)
[17:00:00] Completed 315000 out of 500000 steps  (63%)
[17:05:14] Completed 320000 out of 500000 steps  (64%)
[17:10:27] Completed 325000 out of 500000 steps  (65%)
[17:15:42] Completed 330000 out of 500000 steps  (66%)
[17:20:53] Completed 335000 out of 500000 steps  (67%)
[17:26:07] Completed 340000 out of 500000 steps  (68%)
[17:31:26] Completed 345000 out of 500000 steps  (69%)
[17:36:40] Completed 350000 out of 500000 steps  (70%)
[17:41:54] Completed 355000 out of 500000 steps  (71%)
[17:47:08] Completed 360000 out of 500000 steps  (72%)
[17:52:23] Completed 365000 out of 500000 steps  (73%)
[17:57:37] Completed 370000 out of 500000 steps  (74%)
[18:02:51] Completed 375000 out of 500000 steps  (75%)
[18:08:04] Completed 380000 out of 500000 steps  (76%)
[18:13:18] Completed 385000 out of 500000 steps  (77%)
[18:18:31] Completed 390000 out of 500000 steps  (78%)
[18:23:44] Completed 395000 out of 500000 steps  (79%)
[18:28:56] Completed 400000 out of 500000 steps  (80%)
[18:34:10] Completed 405000 out of 500000 steps  (81%)
[18:39:22] Completed 410000 out of 500000 steps  (82%)
[18:44:36] Completed 415000 out of 500000 steps  (83%)
[18:49:49] Completed 420000 out of 500000 steps  (84%)
[18:55:02] Completed 425000 out of 500000 steps  (85%)
[19:00:16] Completed 430000 out of 500000 steps  (86%)
[19:05:30] Completed 435000 out of 500000 steps  (87%)
[19:10:43] Completed 440000 out of 500000 steps  (88%)
[19:15:56] Completed 445000 out of 500000 steps  (89%)
[19:21:09] Completed 450000 out of 500000 steps  (90%)
[19:26:22] Completed 455000 out of 500000 steps  (91%)
[19:31:34] Completed 460000 out of 500000 steps  (92%)
[19:36:46] Completed 465000 out of 500000 steps  (93%)
[19:41:58] Completed 470000 out of 500000 steps  (94%)
[19:47:11] Completed 475000 out of 500000 steps  (95%)
[19:52:23] Completed 480000 out of 500000 steps  (96%)
[19:57:35] Completed 485000 out of 500000 steps  (97%)
[20:02:48] Completed 490000 out of 500000 steps  (98%)
[20:07:59] Completed 495000 out of 500000 steps  (99%)
[20:13:12] Completed 500000 out of 500000 steps  (100%)
[20:13:13] DynamicWrapper: Finished Work Unit: sleep=10000
[20:13:23] 
[20:13:23] Finished Work Unit:
[20:13:23] - Reading up to 3698496 from "work/wudata_09.trr": Read 3698496
[20:13:23] trr file hash check passed.
[20:13:23] edr file hash check passed.
[20:13:23] logfile size: 66202
[20:13:23] Leaving Run
[20:13:24] - Writing 3800658 bytes of core data to disk...
[20:13:24]   ... Done.
[20:13:25] - Shutting down core
[20:13:25] 
[20:13:25] Folding@home Core Shutdown: FINISHED_UNIT
[20:13:29] CoreStatus = 64 (100)
[20:13:29] Sending work to server
[20:13:29] Project: 6052 (Run 1, Clone 105, Gen 231)


[20:13:29] + Attempting to send results [March 28 20:13:29 UTC]
It crashes when it send the results ^^^ thats where it crashes!!!!
Last years model
(17 items)
 
  
CPUMotherboardGraphicsRAM
P2 x4 965 c3 M4A78T-E Stock Gskill 
Hard DriveHard DriveHard DriveOptical Drive
Western DIgital Western Digital Samsung Hp 
CoolingOSMonitorKeyboard
RocketFish P-P Windows 7 MSDN H233H Logitech 520S 
PowerCaseMouseMouse Pad
Corsair tx750w CM 690II G5 Coca COla 
Audio
Stock  
  hide details  
Reply
Last years model
(17 items)
 
  
CPUMotherboardGraphicsRAM
P2 x4 965 c3 M4A78T-E Stock Gskill 
Hard DriveHard DriveHard DriveOptical Drive
Western DIgital Western Digital Samsung Hp 
CoolingOSMonitorKeyboard
RocketFish P-P Windows 7 MSDN H233H Logitech 520S 
PowerCaseMouseMouse Pad
Corsair tx750w CM 690II G5 Coca COla 
Audio
Stock  
  hide details  
Reply
post #12 of 21
How about a clean install, maybe your client is corrupted.
>.<
(13 items)
 
  
CPUMotherboardGraphicsRAM
i7 930 4.0ghz 1.27v EVGA E758 3-Way (black/gray) Evga GTX 480 / Evga 9800gtx+ (physx&folding) Corsair Dominator 6gb 1600 8-8-8-24 
Hard DriveOSMonitorPower
x25-M SSD 80gb + 1TB F3 + 2x2TB WD Green Win 7 64bit Viewsonic 20" + Samsung 40" Corsair 1000w 
Case
Haf 932 (modded) - Now caseless 
  hide details  
Reply
>.<
(13 items)
 
  
CPUMotherboardGraphicsRAM
i7 930 4.0ghz 1.27v EVGA E758 3-Way (black/gray) Evga GTX 480 / Evga 9800gtx+ (physx&folding) Corsair Dominator 6gb 1600 8-8-8-24 
Hard DriveOSMonitorPower
x25-M SSD 80gb + 1TB F3 + 2x2TB WD Green Win 7 64bit Viewsonic 20" + Samsung 40" Corsair 1000w 
Case
Haf 932 (modded) - Now caseless 
  hide details  
Reply
post #13 of 21
Thread Starter 
Okay just did that now i got 10million steps instead of the usual 500k lol it will be a couple days to report back...
Last years model
(17 items)
 
  
CPUMotherboardGraphicsRAM
P2 x4 965 c3 M4A78T-E Stock Gskill 
Hard DriveHard DriveHard DriveOptical Drive
Western DIgital Western Digital Samsung Hp 
CoolingOSMonitorKeyboard
RocketFish P-P Windows 7 MSDN H233H Logitech 520S 
PowerCaseMouseMouse Pad
Corsair tx750w CM 690II G5 Coca COla 
Audio
Stock  
  hide details  
Reply
Last years model
(17 items)
 
  
CPUMotherboardGraphicsRAM
P2 x4 965 c3 M4A78T-E Stock Gskill 
Hard DriveHard DriveHard DriveOptical Drive
Western DIgital Western Digital Samsung Hp 
CoolingOSMonitorKeyboard
RocketFish P-P Windows 7 MSDN H233H Logitech 520S 
PowerCaseMouseMouse Pad
Corsair tx750w CM 690II G5 Coca COla 
Audio
Stock  
  hide details  
Reply
post #14 of 21
Ehh?

What work unit is that.
>.<
(13 items)
 
  
CPUMotherboardGraphicsRAM
i7 930 4.0ghz 1.27v EVGA E758 3-Way (black/gray) Evga GTX 480 / Evga 9800gtx+ (physx&folding) Corsair Dominator 6gb 1600 8-8-8-24 
Hard DriveOSMonitorPower
x25-M SSD 80gb + 1TB F3 + 2x2TB WD Green Win 7 64bit Viewsonic 20" + Samsung 40" Corsair 1000w 
Case
Haf 932 (modded) - Now caseless 
  hide details  
Reply
>.<
(13 items)
 
  
CPUMotherboardGraphicsRAM
i7 930 4.0ghz 1.27v EVGA E758 3-Way (black/gray) Evga GTX 480 / Evga 9800gtx+ (physx&folding) Corsair Dominator 6gb 1600 8-8-8-24 
Hard DriveOSMonitorPower
x25-M SSD 80gb + 1TB F3 + 2x2TB WD Green Win 7 64bit Viewsonic 20" + Samsung 40" Corsair 1000w 
Case
Haf 932 (modded) - Now caseless 
  hide details  
Reply
post #15 of 21
It's probably -bigadv (1mil steps).
Megadoomer
(14 items)
 
Family Computer
(13 items)
 
 
CPUMotherboardGraphicsRAM
Phenom II X6 1090T @ 4.0Ghz ASUS M4A89GTD PRO Sparkle GTS 450 2x4GB G-Skill Sniper 
Hard DriveCoolingOSMonitor
Samsung F1 1TB CM Hyper 212+ Windows 7 Professional x64 Samsung T220 
KeyboardPowerCaseMouse
Logitech MX3000 Laser CM 1000M HAF 922 Logitech VX Revolution 
CPUMotherboardGraphicsRAM
Q6600 Asus PN5-D 750i Evga GTS 250 2x2GB Crucial Ballistix 
Hard DriveOptical DriveOSMonitor
750GB Hitachi Samsung Super Writemaster Windows 7 Professional x64 19" Dell 
PowerCase
Corsair 450VX Antec 900 
  hide details  
Reply
Megadoomer
(14 items)
 
Family Computer
(13 items)
 
 
CPUMotherboardGraphicsRAM
Phenom II X6 1090T @ 4.0Ghz ASUS M4A89GTD PRO Sparkle GTS 450 2x4GB G-Skill Sniper 
Hard DriveCoolingOSMonitor
Samsung F1 1TB CM Hyper 212+ Windows 7 Professional x64 Samsung T220 
KeyboardPowerCaseMouse
Logitech MX3000 Laser CM 1000M HAF 922 Logitech VX Revolution 
CPUMotherboardGraphicsRAM
Q6600 Asus PN5-D 750i Evga GTS 250 2x2GB Crucial Ballistix 
Hard DriveOptical DriveOSMonitor
750GB Hitachi Samsung Super Writemaster Windows 7 Professional x64 19" Dell 
PowerCase
Corsair 450VX Antec 900 
  hide details  
Reply
post #16 of 21
I could have sworn bigadv were 250k steps...
Unless its new units, then I haven't got any yet.
>.<
(13 items)
 
  
CPUMotherboardGraphicsRAM
i7 930 4.0ghz 1.27v EVGA E758 3-Way (black/gray) Evga GTX 480 / Evga 9800gtx+ (physx&folding) Corsair Dominator 6gb 1600 8-8-8-24 
Hard DriveOSMonitorPower
x25-M SSD 80gb + 1TB F3 + 2x2TB WD Green Win 7 64bit Viewsonic 20" + Samsung 40" Corsair 1000w 
Case
Haf 932 (modded) - Now caseless 
  hide details  
Reply
>.<
(13 items)
 
  
CPUMotherboardGraphicsRAM
i7 930 4.0ghz 1.27v EVGA E758 3-Way (black/gray) Evga GTX 480 / Evga 9800gtx+ (physx&folding) Corsair Dominator 6gb 1600 8-8-8-24 
Hard DriveOSMonitorPower
x25-M SSD 80gb + 1TB F3 + 2x2TB WD Green Win 7 64bit Viewsonic 20" + Samsung 40" Corsair 1000w 
Case
Haf 932 (modded) - Now caseless 
  hide details  
Reply
post #17 of 21
Thread Starter 
no i don't even try to do that with this processor i don't have 8 threads its a
Gromacs Gb core

Its actually going pretty fast i thought it would take forever 10% done about 3minutes per 1%
Code:
[22:53:48] *------------------------------*
[22:53:48] Folding@Home Gromacs GB Core
[22:53:48] Version 2.27 (Dec. 15, 2010)
[22:53:48] 
[22:53:48] Preparing to commence simulation
[22:53:48] - Looking at optimizations...
[22:53:48] - Files status OK
[22:53:48] - Expanded 55385 -> 203980 (decompressed 368.2 percent)
[22:53:48] Called DecompressByteArray: compressed_data_size=55385 data_size=203980, decompressed_data_size=203980 diff=0
[22:53:48] - Digital signature verified
[22:53:48] 
[22:53:48] Project: 10074 (Run 51, Clone 0, Gen 3)
[22:53:48] 
[22:53:48] Assembly optimizations on if available.
[22:53:48] Entering M.D.
[22:53:54] Mapping NT from 4 to 4 
[22:53:54] Completed 0 out of 10000000 steps  (0%)
[22:57:33] Completed 100000 out of 10000000 steps  (1%)
[23:01:16] Completed 200000 out of 10000000 steps  (2%)
[23:04:33] Completed 300000 out of 10000000 steps  (3%)
[23:07:50] Completed 400000 out of 10000000 steps  (4%)
[23:11:07] Completed 500000 out of 10000000 steps  (5%)
[23:14:25] Completed 600000 out of 10000000 steps  (6%)
[23:17:43] Completed 700000 out of 10000000 steps  (7%)
[23:20:59] Completed 800000 out of 10000000 steps  (8%)
[23:24:20] Completed 900000 out of 10000000 steps  (9%)
[23:27:44] Completed 1000000 out of 10000000 steps  (10%)
Last years model
(17 items)
 
  
CPUMotherboardGraphicsRAM
P2 x4 965 c3 M4A78T-E Stock Gskill 
Hard DriveHard DriveHard DriveOptical Drive
Western DIgital Western Digital Samsung Hp 
CoolingOSMonitorKeyboard
RocketFish P-P Windows 7 MSDN H233H Logitech 520S 
PowerCaseMouseMouse Pad
Corsair tx750w CM 690II G5 Coca COla 
Audio
Stock  
  hide details  
Reply
Last years model
(17 items)
 
  
CPUMotherboardGraphicsRAM
P2 x4 965 c3 M4A78T-E Stock Gskill 
Hard DriveHard DriveHard DriveOptical Drive
Western DIgital Western Digital Samsung Hp 
CoolingOSMonitorKeyboard
RocketFish P-P Windows 7 MSDN H233H Logitech 520S 
PowerCaseMouseMouse Pad
Corsair tx750w CM 690II G5 Coca COla 
Audio
Stock  
  hide details  
Reply
post #18 of 21
a5 WUs are 1mil+ steps on the Projects page.
Megadoomer
(14 items)
 
Family Computer
(13 items)
 
 
CPUMotherboardGraphicsRAM
Phenom II X6 1090T @ 4.0Ghz ASUS M4A89GTD PRO Sparkle GTS 450 2x4GB G-Skill Sniper 
Hard DriveCoolingOSMonitor
Samsung F1 1TB CM Hyper 212+ Windows 7 Professional x64 Samsung T220 
KeyboardPowerCaseMouse
Logitech MX3000 Laser CM 1000M HAF 922 Logitech VX Revolution 
CPUMotherboardGraphicsRAM
Q6600 Asus PN5-D 750i Evga GTS 250 2x2GB Crucial Ballistix 
Hard DriveOptical DriveOSMonitor
750GB Hitachi Samsung Super Writemaster Windows 7 Professional x64 19" Dell 
PowerCase
Corsair 450VX Antec 900 
  hide details  
Reply
Megadoomer
(14 items)
 
Family Computer
(13 items)
 
 
CPUMotherboardGraphicsRAM
Phenom II X6 1090T @ 4.0Ghz ASUS M4A89GTD PRO Sparkle GTS 450 2x4GB G-Skill Sniper 
Hard DriveCoolingOSMonitor
Samsung F1 1TB CM Hyper 212+ Windows 7 Professional x64 Samsung T220 
KeyboardPowerCaseMouse
Logitech MX3000 Laser CM 1000M HAF 922 Logitech VX Revolution 
CPUMotherboardGraphicsRAM
Q6600 Asus PN5-D 750i Evga GTS 250 2x2GB Crucial Ballistix 
Hard DriveOptical DriveOSMonitor
750GB Hitachi Samsung Super Writemaster Windows 7 Professional x64 19" Dell 
PowerCase
Corsair 450VX Antec 900 
  hide details  
Reply
post #19 of 21
Thread Starter 
^ okay sorry i am not a pro at this yet....

Usually it says 500K steps I just did a fresh install
this one started downloading 10mill steps i was like *** is this lol
Quicker the better i am going to watch this one personally if it bluescreens I will dispose of the pc out the window... at least the mobo and processor...
Last years model
(17 items)
 
  
CPUMotherboardGraphicsRAM
P2 x4 965 c3 M4A78T-E Stock Gskill 
Hard DriveHard DriveHard DriveOptical Drive
Western DIgital Western Digital Samsung Hp 
CoolingOSMonitorKeyboard
RocketFish P-P Windows 7 MSDN H233H Logitech 520S 
PowerCaseMouseMouse Pad
Corsair tx750w CM 690II G5 Coca COla 
Audio
Stock  
  hide details  
Reply
Last years model
(17 items)
 
  
CPUMotherboardGraphicsRAM
P2 x4 965 c3 M4A78T-E Stock Gskill 
Hard DriveHard DriveHard DriveOptical Drive
Western DIgital Western Digital Samsung Hp 
CoolingOSMonitorKeyboard
RocketFish P-P Windows 7 MSDN H233H Logitech 520S 
PowerCaseMouseMouse Pad
Corsair tx750w CM 690II G5 Coca COla 
Audio
Stock  
  hide details  
Reply
post #20 of 21
That isn't a bigadv.

Project information

Did you forget to add the -smp flag?
>.<
(13 items)
 
  
CPUMotherboardGraphicsRAM
i7 930 4.0ghz 1.27v EVGA E758 3-Way (black/gray) Evga GTX 480 / Evga 9800gtx+ (physx&folding) Corsair Dominator 6gb 1600 8-8-8-24 
Hard DriveOSMonitorPower
x25-M SSD 80gb + 1TB F3 + 2x2TB WD Green Win 7 64bit Viewsonic 20" + Samsung 40" Corsair 1000w 
Case
Haf 932 (modded) - Now caseless 
  hide details  
Reply
>.<
(13 items)
 
  
CPUMotherboardGraphicsRAM
i7 930 4.0ghz 1.27v EVGA E758 3-Way (black/gray) Evga GTX 480 / Evga 9800gtx+ (physx&folding) Corsair Dominator 6gb 1600 8-8-8-24 
Hard DriveOSMonitorPower
x25-M SSD 80gb + 1TB F3 + 2x2TB WD Green Win 7 64bit Viewsonic 20" + Samsung 40" Corsair 1000w 
Case
Haf 932 (modded) - Now caseless 
  hide details  
Reply
New Posts  All Forums:Forum Nav:
  Return Home
  Back to Forum: Overclock.net Folding@Home Team